Westville, IN (46391)

9:34 PM CDT on April 27, 2015 (GMT -0500)
Ridgeview | | Change Station
CLOSE
Current Station
Personal Weather Station
Location: Michigan City, IN
Elevation: 804 ft
Nearby Weather Stations
Active Advisory: Frost Advisory

Elev 804 ft 41.63 °N, 86.86 °W | Updated 14 minutes ago

Clear
Clear
36.3 °F
Feels Like 36 °F
N
0.0
Wind Variable Wind from West

Today
High -- | Low -- °F
--% Chance of Precip.
Yesterday
High -- | Low -- °F
Precip. -- in
5:50 AM 7:40 PM
Waxing Gibbous, 70% visible
Pressure 30.13 in
Visibility 10.0 miles
Clouds Clear
Windchill 36 °F
Dew Point 35 °F
Humidity 94%
Rainfall 0.00 in
Snow Depth Not available.
UV 0 out of 12
Pollen 10.30 out of 12
Air Quality Not available.
Flu Activity Local Activity
METAR KVPZ 280156Z AUTO 00000KT 10SM CLR 05/01 A3011 RMK AO2 SLP201 T00500006 TSNO

More Conditions Fewer Conditions

Pressure 30.13 in
Visibility 10.0 miles
Clouds Clear
Windchill 36 °F
Dew Point 35 °F
Humidity 94%
Rainfall 0.00 in
Snow Depth Not available.
UV 0 out of 12
Pollen 10.30 out of 12
Air Quality Not available.
Flu Activity Local Activity
METAR KVPZ 280156Z AUTO 00000KT 10SM CLR 05/01 A3011 RMK AO2 SLP201 T00500006 TSNO

More Conditions Fewer Conditions

10-Day Weather Forecast

Almanac

Astronomy

Apr. 27, 2015 Rise Set
Actual Time
Civil Twilight
Nautical Twilight
Astronomical Twilight
Moon
Length of Visible Light
Length of Day
Tomorrow will be .
, % of the Moon is Illuminated

Today's Extremes

State Highs State Lows

Community

WunderPhotos

Upload Photos

1,817,522 photos uploaded!

WunderBlogs® & News

Nearby

Air Quality

  Air Quality AQ Index Pollutant
Not available.

Snow Depth

Station Depth Elevation

Earthquake Activity

City Distance Mag. Time & Date
Minimum magnitude displayed is 2.5.

Coastal Water Temperatures

Place Temperature

Stations

Nearby Weather Stations

Station Location Temp. Windchill Dew Point Humidity Wind Precip. Elev Updated Type
                   
Frost Advisory
Statement as of 7:52 PM CDT on April 27, 2015

... Frost advisory remains in effect from 2 am EDT /1 am CDT/ to
9 am EDT /8 am CDT/ Tuesday...

Hazardous weather...

* temperatures will drop into the low to mid 30s tonight.

* Frost formation is likely once skies clear and winds diminish.

Impacts...

* sensitive vegetation will be killed if not protected.

Precautionary/preparedness actions...

A frost advisory means that frost is possible. Sensitive outdoor
plants may be killed if left uncovered.